createdAt,value
2022-10-30T00:01:45.517Z,17.60
2022-10-30T00:04:12.579Z,19.50
2022-10-30T00:06:39.552Z,20.52
2022-10-30T00:09:06.462Z,20.30
2022-10-30T00:11:33.430Z,21.50
2022-10-30T00:14:00.408Z,20.80
2022-10-30T00:16:27.395Z,18.38
2022-10-30T00:18:55.046Z,16.30
2022-10-30T00:21:21.929Z,18.23
2022-10-30T00:23:51.515Z,18.40
2022-10-30T00:26:20.165Z,17.38
2022-10-30T00:28:54.161Z,19.73
2022-10-30T00:31:21.901Z,19.27
2022-10-30T00:33:53.677Z,19.33
2022-10-30T00:36:21.309Z,19.75
2022-10-30T00:38:48.536Z,19.48
2022-10-30T00:41:21.910Z,16.48
2022-10-30T00:43:49.388Z,18.88
2022-10-30T00:46:25.711Z,18.77
2022-10-30T00:49:01.062Z,18.60
2022-10-30T00:51:30.344Z,17.60
2022-10-30T00:54:01.653Z,19.27
2022-10-30T00:56:29.612Z,18.60
2022-10-30T00:59:02.565Z,18.25
2022-10-30T01:01:32.821Z,19.00
2022-10-30T01:04:02.842Z,19.08
2022-10-30T01:06:32.819Z,16.37
2022-10-30T01:09:00.852Z,18.40
2022-10-30T01:11:27.939Z,15.30
2022-10-30T01:14:00.920Z,19.85
2022-10-30T01:16:55.135Z,19.83
2022-10-30T01:19:44.661Z,19.52
2022-10-30T01:22:26.649Z,18.40
2022-10-30T01:24:59.484Z,18.75
2022-10-30T01:27:57.474Z,17.83
2022-10-30T01:30:39.714Z,17.13
2022-10-30T01:33:34.692Z,15.93
2022-10-30T01:36:26.000Z,19.23
2022-10-30T01:38:57.282Z,16.20
2022-10-30T01:41:24.681Z,18.70
2022-10-30T01:44:00.117Z,20.30
2022-10-30T01:46:59.297Z,18.90
2022-10-30T01:50:03.919Z,17.95
2022-10-30T01:52:58.214Z,19.05
2022-10-30T01:55:56.853Z,19.40
2022-10-30T01:58:36.219Z,18.40
2022-10-30T02:01:04.714Z,18.35
2022-10-30T02:03:31.829Z,18.52
2022-10-30T02:05:58.957Z,15.93
2022-10-30T02:08:26.122Z,19.85
2022-10-30T02:10:54.505Z,17.77
2022-10-30T02:13:21.906Z,19.08
2022-10-30T02:15:50.309Z,20.60
2022-10-30T02:18:20.474Z,21.75
2022-10-30T02:20:47.537Z,19.08
2022-10-30T02:23:19.301Z,18.30
2022-10-30T02:25:46.513Z,20.15
2022-10-30T02:28:13.477Z,19.08
2022-10-30T02:30:44.508Z,20.05
2022-10-30T02:33:12.062Z,21.08
2022-10-30T02:35:39.008Z,21.48
2022-10-30T02:38:06.255Z,21.33
2022-10-30T02:40:33.452Z,17.88
2022-10-30T02:43:00.539Z,16.27
2022-10-30T02:45:27.524Z,19.77
2022-10-30T02:47:54.540Z,20.65
2022-10-30T02:50:21.712Z,21.17
2022-10-30T02:52:48.614Z,22.05
2022-10-30T02:55:15.701Z,19.50
2022-10-30T02:57:42.657Z,17.95
2022-10-30T03:00:10.361Z,20.92
2022-10-30T03:02:37.330Z,19.00
2022-10-30T03:05:05.024Z,19.92
2022-10-30T03:07:32.240Z,23.25
2022-10-30T03:09:59.281Z,28.20
2022-10-30T03:12:26.382Z,26.10
2022-10-30T03:14:53.364Z,30.23
2022-10-30T03:17:20.297Z,30.17
2022-10-30T03:19:47.286Z,25.63
2022-10-30T03:22:14.243Z,21.58
2022-10-30T03:24:41.246Z,22.98
2022-10-30T03:27:08.226Z,27.50
2022-10-30T03:29:35.222Z,22.70
2022-10-30T03:32:02.192Z,24.45
2022-10-30T03:34:29.144Z,23.70
2022-10-30T03:36:56.456Z,27.45
2022-10-30T03:39:23.394Z,26.88
2022-10-30T03:41:50.305Z,26.13
2022-10-30T03:44:17.259Z,25.75
2022-10-30T03:46:44.143Z,26.98
2022-10-30T03:49:11.151Z,21.42
2022-10-30T03:51:38.176Z,20.05
2022-10-30T03:54:05.089Z,21.63
2022-10-30T03:56:32.082Z,22.38
2022-10-30T03:58:59.037Z,21.75
2022-10-30T04:01:26.081Z,20.40
2022-10-30T04:03:53.096Z,22.10
2022-10-30T04:06:20.011Z,22.27
2022-10-30T04:08:46.944Z,23.02
2022-10-30T04:11:13.938Z,22.63
2022-10-30T04:13:40.943Z,21.73
2022-10-30T04:16:08.130Z,25.48
2022-10-30T04:18:35.246Z,24.63
2022-10-30T04:21:02.222Z,24.42
2022-10-30T04:23:29.356Z,24.88
2022-10-30T04:25:56.442Z,25.33
2022-10-30T04:28:23.397Z,20.42
2022-10-30T04:30:50.387Z,24.20
2022-10-30T04:33:17.393Z,24.58
2022-10-30T04:35:44.383Z,24.85
2022-10-30T04:38:14.187Z,22.05
2022-10-30T04:40:43.604Z,22.35
2022-10-30T04:43:12.060Z,21.88
2022-10-30T04:45:40.194Z,20.48
2022-10-30T04:48:18.578Z,22.95
2022-10-30T04:50:45.589Z,23.50
2022-10-30T04:53:15.264Z,19.45
2022-10-30T04:55:42.860Z,22.10
2022-10-30T04:58:10.618Z,20.67
2022-10-30T05:00:37.501Z,23.63
2022-10-30T05:03:04.949Z,21.73
2022-10-30T05:05:32.382Z,21.02
2022-10-30T05:07:59.864Z,24.27
2022-10-30T05:10:27.461Z,21.88
2022-10-30T05:12:54.748Z,21.27
2022-10-30T05:15:22.361Z,20.40
2022-10-30T05:17:54.076Z,20.38
2022-10-30T05:20:21.942Z,20.65
2022-10-30T05:22:56.805Z,22.60
2022-10-30T05:25:24.767Z,23.08
2022-10-30T05:27:51.938Z,24.15
2022-10-30T05:30:18.778Z,27.13
2022-10-30T05:32:45.803Z,25.27
2022-10-30T05:35:12.807Z,27.40
2022-10-30T05:37:39.800Z,24.85
2022-10-30T05:40:07.272Z,30.30
2022-10-30T05:42:34.158Z,28.80
2022-10-30T05:45:02.230Z,28.48
2022-10-30T05:47:29.646Z,24.52
2022-10-30T05:49:56.592Z,23.83
2022-10-30T05:52:23.558Z,25.48
2022-10-30T05:54:50.536Z,22.80
2022-10-30T05:57:17.485Z,21.30
2022-10-30T05:59:44.454Z,22.27
2022-10-30T06:02:11.700Z,23.63
2022-10-30T06:04:38.677Z,19.20
2022-10-30T06:07:05.779Z,20.58
2022-10-30T06:09:32.689Z,23.15
2022-10-30T06:11:59.720Z,24.30
2022-10-30T06:14:26.694Z,22.23
2022-10-30T06:16:53.631Z,20.25
2022-10-30T06:19:20.754Z,22.48
2022-10-30T06:21:47.815Z,21.48
2022-10-30T06:24:15.215Z,23.70
2022-10-30T06:26:42.176Z,25.42
2022-10-30T06:29:09.256Z,20.98
2022-10-30T06:31:36.161Z,20.70
2022-10-30T06:34:03.241Z,25.52
2022-10-30T06:36:30.212Z,25.70
2022-10-30T06:38:57.417Z,23.52
2022-10-30T06:41:29.044Z,25.17
2022-10-30T06:43:57.610Z,22.77
2022-10-30T06:46:27.471Z,18.75
2022-10-30T06:48:57.971Z,20.33
2022-10-30T06:51:25.249Z,20.05
2022-10-30T06:53:52.688Z,17.40
2022-10-30T06:56:19.697Z,20.20
2022-10-30T06:58:46.672Z,19.35
2022-10-30T07:01:13.853Z,18.48
2022-10-30T07:03:40.892Z,21.00
2022-10-30T07:06:08.050Z,21.20
2022-10-30T07:08:35.019Z,22.17
2022-10-30T07:11:02.000Z,18.50
2022-10-30T07:13:28.917Z,21.60
2022-10-30T07:15:55.854Z,21.75
2022-10-30T07:18:22.810Z,22.55
2022-10-30T07:20:56.514Z,20.83
2022-10-30T07:23:24.134Z,19.42
2022-10-30T07:25:51.226Z,20.02
2022-10-30T07:28:26.099Z,19.05
2022-10-30T07:30:53.019Z,20.67
2022-10-30T07:33:19.970Z,21.00
2022-10-30T07:35:46.945Z,18.65
2022-10-30T07:38:14.679Z,20.48
2022-10-30T07:40:41.818Z,18.52
2022-10-30T07:43:13.507Z,17.95
2022-10-30T07:45:40.504Z,21.70
2022-10-30T07:48:07.415Z,21.77
2022-10-30T07:50:34.391Z,16.73
2022-10-30T07:53:01.322Z,17.70
2022-10-30T07:55:28.344Z,17.48
2022-10-30T07:57:55.481Z,16.50
2022-10-30T08:00:22.987Z,17.92
2022-10-30T08:02:51.535Z,15.07
2022-10-30T08:05:19.459Z,15.30
2022-10-30T08:07:47.451Z,15.35
2022-10-30T08:10:14.663Z,14.82
2022-10-30T08:12:44.149Z,14.35
2022-10-30T08:15:11.998Z,14.18
2022-10-30T08:17:46.341Z,14.63
2022-10-30T08:20:15.026Z,13.35
2022-10-30T08:22:50.175Z,12.77
2022-10-30T08:25:19.520Z,12.57
2022-10-30T08:28:07.096Z,12.85
2022-10-30T08:30:36.181Z,17.33
2022-10-30T08:33:05.744Z,12.20
2022-10-30T08:35:33.503Z,12.10
2022-10-30T08:38:03.294Z,12.27
2022-10-30T08:40:30.370Z,11.48
2022-10-30T08:42:58.522Z,10.80
2022-10-30T08:45:29.930Z,10.02
2022-10-30T08:48:00.806Z,10.85
2022-10-30T08:50:28.264Z,9.82
2022-10-30T08:52:55.291Z,9.77
2022-10-30T08:55:22.503Z,10.00
2022-10-30T08:57:49.683Z,8.63
2022-10-30T09:00:16.872Z,8.98
2022-10-30T09:02:44.590Z,9.05
2022-10-30T09:05:11.982Z,9.07
2022-10-30T09:07:38.920Z,9.00
2022-10-30T09:10:06.429Z,8.35
2022-10-30T09:12:33.406Z,8.23
2022-10-30T09:15:00.471Z,8.30
2022-10-30T09:17:27.513Z,8.73
2022-10-30T09:19:54.595Z,7.03
2022-10-30T09:22:21.578Z,7.85
2022-10-30T09:24:48.732Z,8.38
2022-10-30T09:27:15.749Z,8.73
2022-10-30T09:29:42.675Z,8.40
2022-10-30T09:32:10.780Z,7.95
2022-10-30T09:34:38.754Z,8.25
2022-10-30T09:37:06.180Z,7.50
2022-10-30T09:39:33.156Z,7.65
2022-10-30T09:42:36.528Z,7.60
2022-10-30T09:45:28.803Z,6.72
2022-10-30T09:48:09.459Z,7.00
2022-10-30T09:50:56.348Z,7.03
2022-10-30T09:53:34.139Z,6.20
2022-10-30T09:56:16.033Z,7.57
2022-10-30T09:59:13.344Z,6.53
2022-10-30T10:01:53.633Z,7.75
2022-10-30T10:04:40.048Z,6.43
2022-10-30T10:07:17.608Z,7.50
2022-10-30T10:09:45.333Z,6.07
2022-10-30T10:12:26.193Z,5.10
2022-10-30T10:17:43.726Z,5.00
2022-10-30T10:20:30.268Z,5.30
2022-10-30T10:23:00.430Z,5.60
2022-10-30T10:25:31.521Z,4.97
2022-10-30T10:31:13.011Z,5.50
2022-10-30T10:34:04.627Z,4.43
2022-10-30T10:36:43.324Z,4.13
2022-10-30T10:39:40.333Z,4.85
2022-10-30T10:42:16.499Z,4.07
2022-10-30T10:44:50.538Z,4.28
2022-10-30T10:47:37.498Z,6.28
2022-10-30T10:50:15.276Z,7.97
2022-10-30T10:52:55.815Z,5.05
2022-10-30T10:55:28.746Z,5.72
2022-10-30T10:58:00.328Z,4.80
2022-10-30T11:00:29.801Z,7.45
2022-10-30T11:03:03.434Z,4.35
2022-10-30T11:05:47.173Z,4.13
2022-10-30T11:08:29.707Z,5.32
2022-10-30T11:11:02.100Z,4.60
2022-10-30T11:13:36.671Z,4.65
2022-10-30T11:16:09.952Z,4.93
2022-10-30T11:18:37.125Z,4.57
2022-10-30T11:21:10.277Z,4.45
2022-10-30T11:23:44.569Z,4.43
2022-10-30T11:26:17.631Z,4.13
2022-10-30T11:28:59.383Z,4.20
2022-10-30T11:31:40.831Z,4.70
2022-10-30T11:34:17.786Z,4.40
2022-10-30T11:36:45.913Z,4.13
2022-10-30T11:39:19.958Z,4.40
2022-10-30T11:42:05.741Z,4.05
2022-10-30T11:44:45.796Z,4.13
2022-10-30T11:47:15.786Z,5.63
2022-10-30T11:49:55.675Z,4.47
2022-10-30T11:52:25.116Z,4.03
2022-10-30T11:55:00.749Z,3.67
2022-10-30T11:57:38.184Z,4.43
2022-10-30T12:00:09.268Z,3.70
2022-10-30T12:02:43.351Z,3.97
2022-10-30T12:05:31.117Z,3.83
2022-10-30T12:08:07.208Z,4.13
2022-10-30T12:10:42.155Z,4.05
2022-10-30T12:13:15.992Z,3.72
2022-10-30T12:15:45.525Z,3.38
2022-10-30T12:18:25.914Z,3.70
2022-10-30T12:20:57.421Z,3.53
2022-10-30T12:23:27.258Z,3.42
2022-10-30T12:25:57.865Z,3.00
2022-10-30T12:28:27.775Z,2.97
2022-10-30T12:31:03.161Z,3.47
2022-10-30T12:33:37.835Z,2.70
2022-10-30T12:36:14.461Z,2.42
2022-10-30T12:38:45.494Z,2.40
2022-10-30T12:41:30.860Z,2.60
2022-10-30T12:44:20.169Z,2.30
2022-10-30T12:47:08.936Z,2.67
2022-10-30T12:49:58.263Z,2.20
2022-10-30T12:52:51.808Z,2.20
2022-10-30T12:55:28.042Z,2.60
2022-10-30T12:58:15.800Z,2.75
2022-10-30T13:00:59.158Z,3.05
2022-10-30T13:03:36.481Z,5.50
2022-10-30T13:06:15.489Z,3.78
2022-10-30T13:09:15.571Z,3.63
2022-10-30T13:11:59.775Z,3.13
2022-10-30T13:14:43.098Z,3.70
2022-10-30T13:17:12.750Z,4.13
2022-10-30T13:19:45.761Z,6.70
2022-10-30T13:22:49.525Z,7.30
2022-10-30T13:25:26.666Z,5.50
2022-10-30T13:28:06.042Z,4.70
2022-10-30T13:30:42.556Z,5.18
2022-10-30T13:33:41.566Z,4.10
2022-10-30T13:36:14.460Z,4.43
2022-10-30T13:39:03.220Z,4.90
2022-10-30T13:42:00.558Z,4.85
2022-10-30T13:44:53.783Z,5.80
2022-10-30T13:47:29.651Z,5.30
2022-10-30T13:50:15.135Z,5.28
2022-10-30T13:52:47.530Z,4.40
2022-10-30T13:55:30.137Z,5.60
2022-10-30T13:58:16.153Z,5.60
2022-10-30T14:00:58.428Z,6.22
2022-10-30T14:03:33.724Z,6.45
2022-10-30T14:06:21.861Z,4.20
2022-10-30T14:09:34.482Z,4.00
2022-10-30T14:12:38.450Z,3.33
2022-10-30T14:15:06.723Z,2.80
2022-10-30T14:17:33.803Z,2.80
2022-10-30T14:20:12.559Z,2.85
2022-10-30T14:22:41.424Z,4.15
2022-10-30T14:25:16.304Z,4.43
2022-10-30T14:27:43.534Z,3.38
2022-10-30T14:30:20.551Z,4.30
2022-10-30T14:32:52.590Z,4.35
2022-10-30T14:35:38.252Z,3.72
2022-10-30T14:38:08.177Z,3.67
2022-10-30T14:40:38.293Z,3.97
2022-10-30T14:43:36.709Z,4.40
2022-10-30T14:46:19.239Z,5.03
2022-10-30T14:49:11.356Z,4.90
2022-10-30T14:52:17.707Z,4.63
2022-10-30T14:55:07.178Z,4.40
2022-10-30T14:57:54.618Z,5.45
2022-10-30T15:00:24.377Z,6.75
2022-10-30T15:03:34.582Z,5.45
2022-10-30T15:06:21.570Z,6.60
2022-10-30T15:09:07.402Z,10.52
2022-10-30T15:11:56.560Z,8.52
2022-10-30T15:14:48.398Z,10.18
2022-10-30T15:17:23.756Z,10.15
2022-10-30T15:19:50.908Z,11.68
2022-10-30T15:22:21.329Z,15.48
2022-10-30T15:24:51.300Z,15.65
2022-10-30T15:27:20.964Z,12.77
2022-10-30T15:29:55.122Z,12.52
2022-10-30T15:32:24.633Z,16.17
2022-10-30T15:35:01.400Z,18.15
2022-10-30T15:37:28.649Z,19.35
2022-10-30T15:40:17.196Z,18.63
2022-10-30T15:42:45.618Z,19.15
2022-10-30T15:45:22.053Z,20.50
2022-10-30T15:47:59.958Z,18.15
2022-10-30T15:50:27.889Z,16.85
2022-10-30T15:52:55.627Z,18.00
2022-10-30T15:55:28.640Z,16.15
2022-10-30T15:58:04.361Z,18.15
2022-10-30T16:00:36.129Z,15.60
2022-10-30T16:03:06.882Z,17.98
2022-10-30T16:05:35.137Z,20.77
2022-10-30T16:08:04.052Z,19.42
2022-10-30T16:10:36.123Z,23.27
2022-10-30T16:13:04.196Z,30.38
2022-10-30T16:15:35.270Z,24.75
2022-10-30T16:18:08.277Z,27.65
2022-10-30T16:20:36.672Z,26.55
2022-10-30T16:23:05.610Z,25.48
2022-10-30T16:25:34.526Z,24.73
2022-10-30T16:28:01.883Z,23.38
2022-10-30T16:30:32.310Z,23.42
2022-10-30T16:33:00.169Z,27.75
2022-10-30T16:35:28.249Z,27.75
2022-10-30T16:37:56.719Z,25.08
2022-10-30T16:40:29.315Z,27.48
2022-10-30T16:43:02.181Z,27.70
2022-10-30T16:45:32.390Z,35.28
2022-10-30T16:48:09.261Z,37.07
2022-10-30T16:50:38.518Z,47.80
2022-10-30T16:53:19.760Z,46.83
2022-10-30T16:55:47.380Z,45.45
2022-10-30T16:58:16.399Z,41.47
2022-10-30T17:00:53.843Z,37.75
2022-10-30T17:03:25.561Z,44.72
2022-10-30T17:06:04.900Z,63.83
2022-10-30T17:08:42.201Z,60.05
2022-10-30T17:11:21.083Z,67.65
2022-10-30T17:13:59.901Z,56.63
2022-10-30T17:16:27.990Z,66.43
2022-10-30T17:19:00.432Z,51.90
2022-10-30T17:21:38.609Z,52.40
2022-10-30T17:24:06.345Z,55.72
2022-10-30T17:26:41.209Z,51.10
2022-10-30T17:29:36.854Z,43.90
2022-10-30T17:32:23.553Z,42.20
2022-10-30T17:35:00.675Z,39.50
2022-10-30T17:37:28.209Z,44.17
2022-10-30T17:39:55.192Z,43.78
2022-10-30T17:42:22.642Z,40.63
2022-10-30T17:44:49.637Z,39.95
2022-10-30T17:47:18.955Z,38.78
2022-10-30T17:49:46.852Z,36.30
2022-10-30T17:52:15.819Z,46.53
2022-10-30T17:54:43.200Z,43.03
2022-10-30T17:57:12.119Z,41.22
2022-10-30T17:59:39.935Z,39.78
2022-10-30T18:02:17.029Z,38.03
2022-10-30T18:04:44.746Z,42.50
2022-10-30T18:07:13.310Z,39.55
2022-10-30T18:09:40.950Z,43.08
2022-10-30T18:12:12.584Z,38.10
2022-10-30T18:14:39.497Z,46.25
2022-10-30T18:17:07.058Z,45.25
2022-10-30T18:19:33.956Z,40.50
2022-10-30T18:22:00.909Z,48.97
2022-10-30T18:24:27.842Z,47.88
2022-10-30T18:26:58.793Z,77.32
2022-10-30T18:29:25.818Z,76.90
2022-10-30T18:31:52.819Z,82.78
2022-10-30T18:34:22.573Z,76.10
2022-10-30T18:36:50.000Z,72.70
2022-10-30T18:39:21.014Z,65.68
2022-10-30T18:41:49.453Z,68.72
2022-10-30T18:44:19.447Z,72.22
2022-10-30T18:46:46.775Z,70.60
2022-10-30T18:49:14.020Z,70.45
2022-10-30T18:51:41.306Z,72.22
2022-10-30T18:54:14.055Z,68.40
2022-10-30T18:56:41.432Z,77.78
2022-10-30T18:59:08.386Z,73.20
2022-10-30T19:01:35.773Z,71.85
2022-10-30T19:04:04.186Z,74.63
2022-10-30T19:06:34.809Z,67.85
2022-10-30T19:09:02.037Z,66.40
2022-10-30T19:11:31.913Z,72.82
2022-10-30T19:13:59.135Z,76.38
2022-10-30T19:16:26.228Z,78.65
2022-10-30T19:18:53.464Z,84.75
2022-10-30T19:21:25.951Z,88.30
2022-10-30T19:23:54.444Z,75.75
2022-10-30T19:26:21.363Z,90.15
2022-10-30T19:28:48.336Z,78.93
2022-10-30T19:31:17.493Z,88.68
2022-10-30T19:33:44.709Z,83.78
2022-10-30T19:36:37.192Z,84.72
2022-10-30T19:39:11.648Z,78.32
2022-10-30T19:41:40.291Z,87.90
2022-10-30T19:44:07.235Z,84.88
2022-10-30T19:46:34.444Z,94.22
2022-10-30T19:49:02.080Z,96.18
2022-10-30T19:51:29.359Z,94.53
2022-10-30T19:53:56.524Z,87.53
2022-10-30T19:56:23.627Z,92.80
2022-10-30T19:58:50.912Z,78.63
2022-10-30T20:01:18.201Z,79.45
2022-10-30T20:03:45.288Z,88.60
2022-10-30T20:06:13.765Z,83.95
2022-10-30T20:08:40.783Z,89.53
2022-10-30T20:11:08.128Z,84.55
2022-10-30T20:13:35.288Z,87.93
2022-10-30T20:16:05.391Z,85.10
2022-10-30T20:18:35.137Z,80.97
2022-10-30T20:21:05.060Z,83.18
2022-10-30T20:23:32.043Z,84.80
2022-10-30T20:26:01.845Z,90.32
2022-10-30T20:28:32.129Z,82.83
2022-10-30T20:30:59.281Z,86.82
2022-10-30T20:33:26.636Z,91.32
2022-10-30T20:35:57.071Z,85.43
2022-10-30T20:38:26.717Z,93.97
2022-10-30T20:40:54.313Z,91.38
2022-10-30T20:43:25.401Z,74.10
2022-10-30T20:45:52.360Z,77.20
2022-10-30T20:48:19.442Z,77.15
2022-10-30T20:50:50.484Z,79.78
2022-10-30T20:53:17.838Z,78.60
2022-10-30T20:55:45.764Z,83.55
2022-10-30T20:58:13.365Z,83.95
2022-10-30T21:00:40.552Z,73.82
2022-10-30T21:03:07.930Z,79.78
2022-10-30T21:05:44.724Z,71.10
2022-10-30T21:08:14.482Z,67.15
2022-10-30T21:10:42.561Z,79.97
2022-10-30T21:13:10.888Z,77.40
2022-10-30T21:15:42.933Z,78.35
2022-10-30T21:18:11.792Z,82.95
2022-10-30T21:20:39.513Z,88.72
2022-10-30T21:23:06.872Z,81.25
2022-10-30T21:25:34.100Z,86.57
2022-10-30T21:28:01.884Z,88.53
2022-10-30T21:30:29.113Z,86.18
2022-10-30T21:32:56.083Z,81.97
2022-10-30T21:35:23.079Z,86.93
2022-10-30T21:37:50.282Z,86.13
2022-10-30T21:40:17.394Z,82.03
2022-10-30T21:42:47.231Z,93.00
2022-10-30T21:45:14.224Z,100.80
2022-10-30T21:47:41.150Z,95.47
2022-10-30T21:50:12.291Z,94.85
2022-10-30T21:52:40.174Z,110.25
2022-10-30T21:55:07.689Z,98.57
2022-10-30T21:57:35.216Z,107.07
2022-10-30T22:00:05.678Z,100.25
2022-10-30T22:02:34.580Z,99.95
2022-10-30T22:05:01.589Z,104.93
2022-10-30T22:07:28.554Z,98.35
2022-10-30T22:09:55.534Z,96.07
2022-10-30T22:12:22.469Z,100.57
2022-10-30T22:14:49.398Z,102.70
2022-10-30T22:17:16.489Z,100.65
2022-10-30T22:19:43.429Z,105.75
2022-10-30T22:22:11.414Z,84.70
2022-10-30T22:24:38.710Z,92.82
2022-10-30T22:27:05.789Z,82.00
2022-10-30T22:29:33.018Z,83.07
2022-10-30T22:32:00.051Z,88.35
2022-10-30T22:34:27.031Z,89.45
2022-10-30T22:36:53.948Z,89.75
2022-10-30T22:39:20.922Z,84.40
2022-10-30T22:41:47.878Z,86.82
2022-10-30T22:44:18.895Z,89.63
2022-10-30T22:46:46.279Z,84.63
2022-10-30T22:49:13.279Z,89.82
2022-10-30T22:51:40.306Z,90.85
2022-10-30T22:54:10.202Z,89.43
2022-10-30T22:56:37.664Z,93.53
2022-10-30T22:59:08.440Z,97.47
2022-10-30T23:04:05.263Z,90.78
2022-10-30T23:06:34.330Z,86.00
2022-10-30T23:09:04.507Z,92.45
2022-10-30T23:11:31.517Z,85.00
2022-10-30T23:13:58.471Z,83.47
2022-10-30T23:16:26.769Z,89.53
2022-10-30T23:18:58.338Z,88.25
2022-10-30T23:21:27.073Z,79.82
2022-10-30T23:23:55.482Z,92.25
2022-10-30T23:26:28.191Z,92.43
2022-10-30T23:28:56.290Z,85.63
2022-10-30T23:31:31.400Z,88.53
2022-10-30T23:34:00.983Z,83.97
2022-10-30T23:36:28.616Z,84.97
2022-10-30T23:39:00.520Z,76.28
2022-10-30T23:41:30.896Z,84.25
2022-10-30T23:44:00.360Z,75.88
2022-10-30T23:46:28.051Z,76.85
2022-10-30T23:48:55.663Z,83.47
2022-10-30T23:51:22.608Z,81.93
2022-10-30T23:53:49.762Z,81.00
2022-10-30T23:56:17.301Z,74.25
2022-10-30T23:58:45.914Z,73.95
